Time;durP1;ratioP1;P1;durP2;ratioP2;P2;SDS_P1;SDS_P2;PMS_P1;PMS_P2;Temp;Humidity;BMP_temperature;BMP_pressure;BME280_temperature;BME280_humidity;BME280_pressure;Samples;Min_cycle;Max_cycle;Signal;HPM_P1;HPM_P2
2021/06/09 00:02:02;;;;;;;5.33;4.83;;;16.40;99.90;;;;;;6296410;22;20171;-78
2021/06/09 00:04:28;;;;;;;4.70;4.22;;;16.30;99.90;;;;;;6296510;22;20248;-79
2021/06/09 00:06:55;;;;;;;4.90;4.50;;;16.30;99.90;;;;;;6296714;22;20172;-78
2021/06/09 00:09:21;;;;;;;4.90;4.50;;;16.30;99.90;;;;;;6296084;22;20176;-77
2021/06/09 00:11:47;;;;;;;5.03;4.63;;;16.30;99.90;;;;;;6296592;22;20176;-77
2021/06/09 00:14:15;;;;;;;4.93;4.53;;;16.20;99.90;;;;;;6296608;22;20176;-79
2021/06/09 00:16:42;;;;;;;4.20;3.90;;;16.20;99.90;;;;;;6296217;22;20192;-77
2021/06/09 00:19:11;;;;;;;4.37;3.97;;;16.20;99.90;;;;;;6297086;22;20464;-78
2021/06/09 00:21:37;;;;;;;4.27;3.97;;;16.10;99.90;;;;;;6297468;22;20203;-77
2021/06/09 00:24:04;;;;;;;5.30;4.80;;;16.10;99.90;;;;;;6295396;22;20175;-75
2021/06/09 00:26:31;;;;;;;5.37;4.50;;;16.10;99.90;;;;;;6296332;22;20172;-75
2021/06/09 00:28:57;;;;;;;5.03;4.53;;;16.10;99.90;;;;;;6295331;22;20211;-77
2021/06/09 00:31:23;;;;;;;4.60;4.20;;;16.10;99.90;;;;;;6296159;22;20164;-77
2021/06/09 00:33:50;;;;;;;4.20;3.80;;;16.00;99.90;;;;;;6296546;22;20179;-78
2021/06/09 00:36:17;;;;;;;4.70;4.30;;;16.00;99.90;;;;;;6295334;22;20188;-78
2021/06/09 00:38:44;;;;;;;5.27;4.50;;;16.00;99.90;;;;;;6295921;22;20172;-78
2021/06/09 00:41:10;;;;;;;4.87;4.47;;;16.00;99.90;;;;;;6296414;22;20368;-78
2021/06/09 00:43:37;;;;;;;6.15;5.30;;;15.90;99.90;;;;;;6295199;22;20168;-78
2021/06/09 00:46:06;;;;;;;5.07;4.60;;;15.90;99.90;;;;;;6295582;22;20191;-79
2021/06/09 00:48:34;;;;;;;8.43;5.23;;;15.90;99.90;;;;;;6296538;22;20172;-78
2021/06/09 00:51:03;;;;;;;5.53;5.03;;;15.80;99.90;;;;;;6294857;22;20226;-79
2021/06/09 00:53:34;;;;;;;6.03;5.07;;;15.70;99.90;;;;;;6296902;22;20191;-78
2021/06/09 00:56:02;;;;;;;4.67;4.17;;;15.70;99.90;;;;;;6295519;22;20168;-79
2021/06/09 00:58:29;;;;;;;5.97;5.37;;;15.70;99.90;;;;;;6295918;22;20183;-79
2021/06/09 01:00:56;;;;;;;6.03;5.43;;;15.60;99.90;;;;;;6296309;22;20181;-79
2021/06/09 01:03:22;;;;;;;8.30;7.50;;;15.60;99.90;;;;;;6296699;22;20214;-78
2021/06/09 01:05:49;;;;;;;7.57;6.53;;;15.60;99.90;;;;;;6296275;22;20179;-77
2021/06/09 01:08:16;;;;;;;7.30;6.60;;;15.60;99.90;;;;;;6296442;22;20587;-79
2021/06/09 01:10:45;;;;;;;7.37;6.67;;;15.50;99.90;;;;;;6296919;22;20175;-79
2021/06/09 01:13:12;;;;;;;6.67;6.03;;;15.50;99.90;;;;;;6296614;22;20180;-79
2021/06/09 01:15:38;;;;;;;6.20;5.60;;;15.50;99.90;;;;;;6297317;22;20211;-79
2021/06/09 01:18:05;;;;;;;7.80;7.03;;;15.50;99.90;;;;;;6295686;22;20195;-79
2021/06/09 01:20:32;;;;;;;7.80;7.00;;;15.40;99.90;;;;;;6295808;22;20176;-79
2021/06/09 01:23:00;;;;;;;9.87;7.87;;;15.40;99.90;;;;;;6296427;22;20727;-78
2021/06/09 01:25:28;;;;;;;8.80;7.90;;;15.40;99.90;;;;;;6296087;22;20176;-79
2021/06/09 01:27:55;;;;;;;8.90;8.00;;;15.40;99.90;;;;;;6296930;22;20168;-78
2021/06/09 01:30:22;;;;;;;10.37;7.87;;;15.30;99.90;;;;;;6296894;22;20180;-77
2021/06/09 01:32:50;;;;;;;9.83;8.93;;;15.30;99.90;;;;;;6295470;22;20175;-79
2021/06/09 01:35:16;;;;;;;12.33;11.03;;;15.30;99.90;;;;;;6295985;22;20183;-79
2021/06/09 01:37:43;;;;;;;11.60;10.40;;;15.30;99.90;;;;;;6296663;22;20203;-79
2021/06/09 01:40:14;;;;;;;14.00;12.50;;;15.20;99.90;;;;;;6295225;22;20175;-79
2021/06/09 01:42:42;;;;;;;12.10;10.90;;;15.20;99.90;;;;;;6295415;22;20168;-78
2021/06/09 01:45:13;;;;;;;13.20;11.87;;;15.20;99.90;;;;;;6296158;22;20815;-75
2021/06/09 01:47:39;;;;;;;13.27;11.93;;;15.20;99.90;;;;;;6296293;22;20208;-76
2021/06/09 01:50:09;;;;;;;12.33;11.03;;;15.10;99.90;;;;;;6296590;22;20175;-78
2021/06/09 01:52:36;;;;;;;15.43;12.87;;;15.10;99.90;;;;;;6296319;22;20198;-78
2021/06/09 01:55:05;;;;;;;14.00;12.60;;;15.10;99.90;;;;;;6295415;22;20826;-76
2021/06/09 01:57:33;;;;;;;13.30;12.00;;;15.10;99.90;;;;;;6295626;22;20288;-76
2021/06/09 02:00:00;;;;;;;12.40;11.20;;;15.10;99.90;;;;;;6296573;22;20172;-76
2021/06/09 02:02:26;;;;;;;15.30;13.47;;;15.10;99.90;;;;;;6294702;22;20164;-76
2021/06/09 02:04:53;;;;;;;12.53;11.33;;;15.10;99.90;;;;;;6296228;22;20184;-76
2021/06/09 02:07:19;;;;;;;11.87;10.67;;;15.10;99.90;;;;;;6295177;22;20164;-78
2021/06/09 02:09:46;;;;;;;11.30;10.20;;;15.10;99.90;;;;;;6295240;22;20171;-77
2021/06/09 02:12:13;;;;;;;11.60;10.50;;;15.10;99.90;;;;;;6295780;22;20198;-78
2021/06/09 02:14:43;;;;;;;10.70;9.70;;;15.00;99.90;;;;;;6295071;22;20277;-78
2021/06/09 02:17:10;;;;;;;11.00;9.93;;;15.10;99.90;;;;;;6296230;22;20740;-75
2021/06/09 02:19:37;;;;;;;9.33;8.53;;;15.00;99.90;;;;;;6297381;22;20179;-77
2021/06/09 02:22:05;;;;;;;8.77;7.97;;;15.10;99.90;;;;;;6295626;22;20168;-77
2021/06/09 02:24:32;;;;;;;10.50;9.43;;;15.00;99.90;;;;;;6295558;22;20172;-76
2021/06/09 02:26:59;;;;;;;8.80;7.97;;;15.00;99.90;;;;;;6296287;22;20190;-79
2021/06/09 02:29:25;;;;;;;12.40;11.10;;;15.00;99.90;;;;;;6295689;22;20167;-79
2021/06/09 02:31:53;;;;;;;12.30;11.00;;;15.00;99.90;;;;;;6295792;22;20168;-78
2021/06/09 02:34:22;;;;;;;12.70;11.40;;;15.00;99.90;;;;;;6295957;22;20172;-78
2021/06/09 02:36:49;;;;;;;11.30;10.30;;;15.00;99.90;;;;;;6296125;22;20274;-76
2021/06/09 02:39:17;;;;;;;10.30;9.27;;;14.90;99.90;;;;;;6305635;22;20172;-76
2021/06/09 02:41:43;;;;;;;9.20;8.40;;;14.90;99.90;;;;;;6305739;22;20171;-77
2021/06/09 02:44:10;;;;;;;10.83;9.83;;;14.90;99.90;;;;;;6306943;22;20172;-76
2021/06/09 02:46:40;;;;;;;9.70;8.80;;;14.90;99.90;;;;;;6302998;22;20172;-77
2021/06/09 02:49:11;;;;;;;12.17;11.00;;;14.90;99.90;;;;;;6296201;22;20176;-76
2021/06/09 02:51:44;;;;;;;10.67;9.57;;;14.90;99.90;;;;;;6295877;22;20168;-78
2021/06/09 02:54:19;;;;;;;9.17;8.30;;;14.90;99.90;;;;;;6295673;22;20224;-76
2021/06/09 02:56:58;;;;;;;9.20;8.30;;;14.80;99.90;;;;;;6294450;22;20180;-78
2021/06/09 02:59:33;;;;;;;11.57;10.37;;;14.80;99.90;;;;;;6295825;22;20164;-78
2021/06/09 03:02:06;;;;;;;12.37;11.17;;;14.80;99.90;;;;;;6295363;22;20168;-75
2021/06/09 03:04:41;;;;;;;11.50;10.33;;;14.80;99.90;;;;;;6294928;22;20874;-77
2021/06/09 03:07:16;;;;;;;10.67;9.57;;;14.80;99.90;;;;;;6296014;22;20837;-79
2021/06/09 03:09:54;;;;;;;9.67;8.73;;;14.80;99.90;;;;;;6296159;22;20164;-78
2021/06/09 03:12:35;;;;;;;9.30;8.50;;;14.70;99.90;;;;;;6295293;22;20175;-76
2021/06/09 03:15:10;;;;;;;8.90;8.10;;;14.70;99.90;;;;;;6295922;22;20255;-76
2021/06/09 03:17:43;;;;;;;10.20;9.30;;;14.70;99.90;;;;;;6295130;22;20707;-79
2021/06/09 03:20:18;;;;;;;8.63;7.83;;;14.70;99.90;;;;;;6295676;22;20168;-75
2021/06/09 03:22:52;;;;;;;12.43;11.23;;;14.70;99.90;;;;;;6295474;22;20207;-75
2021/06/09 03:25:22;;;;;;;10.20;9.30;;;14.70;99.90;;;;;;6295811;22;20214;-76
2021/06/09 03:27:54;;;;;;;9.70;8.70;;;14.70;99.90;;;;;;6297947;22;20160;-75
2021/06/09 03:30:22;;;;;;;8.40;7.67;;;14.70;99.90;;;;;;6297642;22;20160;-76
2021/06/09 03:32:54;;;;;;;11.97;10.77;;;14.70;99.90;;;;;;6296287;22;20179;-78
2021/06/09 03:35:26;;;;;;;11.00;9.97;;;14.70;99.90;;;;;;6297800;22;20168;-78
2021/06/09 03:37:55;;;;;;;11.20;10.13;;;14.70;99.90;;;;;;6297871;22;20188;-78
2021/06/09 03:40:25;;;;;;;13.67;12.37;;;14.60;99.90;;;;;;6297561;22;20176;-76
2021/06/09 03:42:58;;;;;;;14.50;13.00;;;14.70;99.90;;;;;;6297343;22;20172;-78
2021/06/09 03:45:26;;;;;;;11.90;10.57;;;14.60;99.90;;;;;;6298042;22;20251;-75
2021/06/09 03:47:54;;;;;;;10.03;9.13;;;14.60;99.90;;;;;;6297054;22;20225;-75
2021/06/09 03:50:24;;;;;;;9.43;8.63;;;14.60;99.90;;;;;;6296137;22;20573;-79
2021/06/09 03:52:52;;;;;;;11.13;10.10;;;14.70;99.90;;;;;;6297214;22;20196;-76
2021/06/09 03:55:23;;;;;;;10.10;9.10;;;14.70;99.90;;;;;;6296692;22;20172;-78
2021/06/09 03:57:51;;;;;;;10.60;9.60;;;14.70;99.90;;;;;;6296678;22;20190;-79
2021/06/09 04:00:18;;;;;;;9.53;8.63;;;14.70;99.90;;;;;;6295991;22;20226;-79
2021/06/09 04:02:46;;;;;;;11.00;9.90;;;14.80;99.90;;;;;;6296122;22;20211;-78
2021/06/09 04:05:13;;;;;;;11.03;9.93;;;14.80;99.90;;;;;;6296667;22;20716;-79
2021/06/09 04:07:43;;;;;;;11.80;10.60;;;14.90;99.90;;;;;;6296537;22;20168;-75
2021/06/09 04:10:11;;;;;;;10.90;9.80;;;14.90;99.90;;;;;;6297677;22;20168;-76
2021/06/09 04:12:39;;;;;;;11.00;9.90;;;14.90;99.90;;;;;;6296864;22;20172;-78
2021/06/09 04:15:09;;;;;;;11.83;10.40;;;15.00;99.90;;;;;;6295926;22;20564;-78
2021/06/09 04:17:38;;;;;;;15.10;13.50;;;15.10;99.90;;;;;;6297226;22;20199;-76
2021/06/09 04:20:07;;;;;;;14.70;13.20;;;15.10;99.90;;;;;;6296709;22;20174;-75
2021/06/09 04:22:34;;;;;;;14.30;12.90;;;15.20;99.90;;;;;;6296560;22;20621;-78
2021/06/09 04:25:03;;;;;;;15.27;13.67;;;15.30;99.90;;;;;;6296486;22;20172;-79
2021/06/09 04:27:32;;;;;;;16.27;14.57;;;15.30;99.90;;;;;;6296976;22;20865;-77
2021/06/09 04:29:59;;;;;;;16.53;14.73;;;15.40;99.90;;;;;;6295369;22;20172;-77
2021/06/09 04:32:26;;;;;;;20.37;15.23;;;15.50;99.90;;;;;;6296640;22;20176;-77
2021/06/09 04:34:54;;;;;;;15.03;13.53;;;15.50;99.90;;;;;;6296830;22;20172;-75
2021/06/09 04:37:22;;;;;;;16.00;14.40;;;15.60;99.90;;;;;;6296193;22;20188;-76
2021/06/09 04:39:50;;;;;;;16.83;15.03;;;15.70;99.90;;;;;;6296795;22;20171;-76
2021/06/09 04:42:18;;;;;;;16.60;14.90;;;15.80;99.90;;;;;;6295992;22;20229;-77
2021/06/09 04:44:45;;;;;;;16.37;14.77;;;15.90;99.90;;;;;;6297613;22;20179;-76
2021/06/09 04:47:12;;;;;;;16.60;14.93;;;16.00;99.90;;;;;;6296340;22;20894;-79
2021/06/09 04:49:41;;;;;;;16.43;14.83;;;16.10;99.90;;;;;;6296719;22;20172;-78
2021/06/09 04:52:08;;;;;;;15.53;14.03;;;16.20;99.90;;;;;;6296191;22;20175;-78
2021/06/09 04:54:35;;;;;;;16.17;14.50;;;16.30;99.90;;;;;;6295586;22;20172;-77
2021/06/09 04:57:03;;;;;;;16.80;15.20;;;16.50;99.90;;;;;;6295971;22;20195;-78
2021/06/09 04:59:31;;;;;;;18.27;16.37;;;16.80;99.90;;;;;;6296375;22;20168;-76
2021/06/09 05:01:57;;;;;;;18.73;16.93;;;17.20;99.90;;;;;;6296148;22;20605;-80
2021/06/09 05:04:23;;;;;;;16.40;14.80;;;17.50;99.90;;;;;;6295322;22;20211;-80
2021/06/09 05:06:50;;;;;;;15.35;13.77;;;17.80;99.90;;;;;;6296639;22;20195;-78
2021/06/09 05:09:17;;;;;;;14.83;13.37;;;18.10;99.90;;;;;;6296433;22;20194;-76
2021/06/09 05:11:50;;;;;;;14.93;13.38;;;18.50;99.90;;;;;;6295814;22;20171;-76
2021/06/09 05:14:22;;;;;;;14.18;12.68;;;18.80;99.90;;;;;;6296568;22;20161;-77
2021/06/09 05:16:51;;;;;;;12.18;10.98;;;19.10;99.90;;;;;;6296062;22;20191;-79
2021/06/09 05:19:20;;;;;;;11.65;10.55;;;19.30;99.90;;;;;;6295241;22;20520;-77
2021/06/09 05:21:50;;;;;;;12.70;11.60;;;19.50;99.90;;;;;;6296128;22;20176;-78
2021/06/09 05:24:19;;;;;;;12.93;11.73;;;19.70;99.90;;;;;;6294700;22;20630;-79
2021/06/09 05:26:46;;;;;;;12.10;10.95;;;19.90;99.90;;;;;;6295388;22;20183;-78
2021/06/09 05:29:16;;;;;;;11.88;10.07;;;20.10;99.90;;;;;;6295436;22;20172;-76
2021/06/09 05:31:46;;;;;;;10.95;9.85;;;20.20;99.90;;;;;;6295165;22;20193;-79
2021/06/09 05:34:14;;;;;;;11.75;10.10;;;20.40;99.90;;;;;;6294841;22;20183;-77
2021/06/09 05:36:40;;;;;;;13.73;10.57;;;20.60;99.90;;;;;;6295754;22;20187;-75
2021/06/09 05:39:06;;;;;;;11.40;10.23;;;20.80;99.90;;;;;;6295557;22;20218;-80
2021/06/09 05:41:33;;;;;;;10.10;9.10;;;21.00;99.90;;;;;;6295207;22;20168;-79
2021/06/09 05:43:59;;;;;;;11.13;9.75;;;21.20;99.90;;;;;;6295668;22;20172;-76
2021/06/09 05:46:27;;;;;;;10.73;8.98;;;21.40;99.90;;;;;;6294467;22;20565;-78
2021/06/09 05:48:54;;;;;;;10.43;9.43;;;21.60;99.90;;;;;;6295292;22;20172;-76
2021/06/09 05:51:23;;;;;;;11.52;9.63;;;21.90;99.90;;;;;;6295859;22;20172;-79
2021/06/09 05:53:53;;;;;;;10.82;9.60;;;22.20;99.90;;;;;;6293693;22;20882;-79
2021/06/09 05:56:20;;;;;;;10.98;9.80;;;22.50;99.90;;;;;;6295730;22;20202;-77
2021/06/09 05:58:46;;;;;;;10.63;9.52;;;22.90;99.90;;;;;;6294981;22;20211;-78
2021/06/09 06:01:12;;;;;;;10.73;9.63;;;23.30;99.90;;;;;;6294051;22;20561;-78
2021/06/09 06:03:41;;;;;;;12.13;10.07;;;23.60;99.90;;;;;;6295415;22;20200;-78
2021/06/09 06:06:09;;;;;;;10.82;9.73;;;23.80;99.90;;;;;;6295142;22;20442;-78
2021/06/09 06:08:40;;;;;;;12.15;10.88;;;24.10;99.90;;;;;;6294868;22;20190;-77
2021/06/09 06:11:09;;;;;;;11.45;9.88;;;24.20;99.90;;;;;;6295484;22;20170;-79
2021/06/09 06:13:36;;;;;;;10.90;9.38;;;24.30;99.90;;;;;;6294031;22;20164;-79
2021/06/09 06:16:03;;;;;;;11.32;9.88;;;24.40;99.90;;;;;;6294961;22;20176;-79
2021/06/09 06:18:31;;;;;;;10.02;9.05;;;24.50;99.90;;;;;;6294555;22;20248;-77
2021/06/09 06:20:57;;;;;;;12.38;11.07;;;24.70;99.90;;;;;;6294723;22;20182;-77
2021/06/09 06:23:25;;;;;;;10.90;9.63;;;24.80;99.90;;;;;;6294864;22;20182;-77
2021/06/09 06:25:53;;;;;;;12.25;10.48;;;24.90;99.90;;;;;;6294993;22;20206;-78
2021/06/09 06:28:20;;;;;;;11.30;10.10;;;25.00;99.90;;;;;;6294235;22;20168;-78
2021/06/09 06:30:46;;;;;;;14.02;10.90;;;25.10;99.90;;;;;;6294657;22;20172;-77
2021/06/09 06:33:15;;;;;;;10.52;9.43;;;25.30;99.90;;;;;;6294038;22;20209;-78
2021/06/09 06:35:43;;;;;;;12.10;10.52;;;25.50;99.90;;;;;;6293166;22;20589;-78
2021/06/09 06:38:10;;;;;;;11.57;10.35;;;25.60;99.90;;;;;;6293143;22;20946;-77
2021/06/09 06:40:37;;;;;;;11.15;9.68;;;25.80;99.90;;;;;;6290820;22;20176;-76
2021/06/09 06:43:05;;;;;;;14.98;11.80;;;26.00;99.90;;;;;;6293505;22;20168;-78
2021/06/09 06:45:31;;;;;;;14.80;11.52;;;26.30;99.90;;;;;;6293259;22;20175;-78
2021/06/09 06:47:57;;;;;;;15.40;10.65;;;26.40;99.90;;;;;;6293434;22;20479;-78
2021/06/09 06:50:25;;;;;;;13.23;10.35;;;26.60;99.90;;;;;;6292079;22;20229;-78
2021/06/09 06:52:53;;;;;;;17.05;11.40;;;27.00;99.90;;;;;;6292893;22;20245;-76
2021/06/09 06:55:21;;;;;;;18.02;12.73;;;27.30;99.90;;;;;;6292417;22;21036;-77
2021/06/09 06:57:49;;;;;;;15.80;11.32;;;27.50;99.90;;;;;;6292323;22;20196;-78
2021/06/09 07:03:46;;;;;;;10.55;9.27;;;27.80;99.90;;;;;;6158504;22;20275;-79
2021/06/09 07:06:13;;;;;;;9.60;8.48;;;27.80;99.90;;;;;;6293085;22;20183;-79
2021/06/09 07:08:40;;;;;;;10.45;8.80;;;27.90;99.90;;;;;;6295729;22;20191;-78
2021/06/09 07:11:10;;;;;;;9.68;8.73;;;28.10;99.90;;;;;;6294597;22;20175;-77
2021/06/09 07:13:37;;;;;;;10.85;9.75;;;28.30;99.90;;;;;;6294910;22;20167;-77
2021/06/09 07:16:06;;;;;;;10.30;9.10;;;28.50;99.90;;;;;;6294651;22;20593;-78
2021/06/09 07:19:22;;;;;;;9.70;8.80;;;28.60;99.90;;;;;;6265566;22;20599;-78
2021/06/09 07:21:48;;;;;;;12.02;10.93;;;28.50;99.90;;;;;;6290333;22;20184;-78
2021/06/09 07:24:16;;;;;;;11.73;10.57;;;28.40;99.90;;;;;;6294858;22;20183;-77
2021/06/09 07:26:46;;;;;;;11.18;10.07;;;28.50;99.90;;;;;;6295077;22;20179;-77
2021/06/09 07:29:17;;;;;;;13.15;11.85;;;28.50;99.90;;;;;;6295461;22;20179;-78
2021/06/09 07:31:46;;;;;;;13.00;11.13;;;28.60;99.90;;;;;;6295093;22;20180;-78
2021/06/09 07:34:14;;;;;;;11.30;10.10;;;28.70;99.90;;;;;;6294905;22;20216;-78
2021/06/09 07:36:46;;;;;;;14.60;13.10;;;28.70;99.90;;;;;;6294881;22;20183;-78
2021/06/09 07:39:24;;;;;;;14.63;13.20;;;28.70;99.90;;;;;;6294172;22;20190;-78
2021/06/09 07:41:51;;;;;;;14.20;12.90;;;28.60;99.90;;;;;;6295392;22;20174;-77
2021/06/09 07:44:19;;;;;;;12.07;10.98;;;28.60;99.90;;;;;;6294770;22;20168;-79
2021/06/09 07:46:46;;;;;;;13.07;11.77;;;28.70;99.90;;;;;;6293265;22;20568;-78
2021/06/09 07:49:15;;;;;;;14.77;13.38;;;28.80;99.90;;;;;;6294636;22;20591;-78
2021/06/09 07:51:45;;;;;;;13.73;12.43;;;28.90;99.90;;;;;;6295165;22;20176;-74
2021/06/09 07:54:13;;;;;;;14.85;13.45;;;29.00;99.90;;;;;;6292232;22;20198;-75
2021/06/09 07:56:43;;;;;;;12.38;11.20;;;29.20;99.90;;;;;;6295471;22;20172;-77
2021/06/09 07:59:11;;;;;;;13.90;12.55;;;29.20;99.90;;;;;;6294293;22;20286;-76
2021/06/09 08:01:41;;;;;;;14.57;13.27;;;29.30;99.90;;;;;;6294651;22;20548;-74
2021/06/09 08:04:09;;;;;;;14.88;13.48;;;29.50;99.90;;;;;;6294103;22;20208;-78
2021/06/09 08:06:35;;;;;;;16.33;14.60;;;29.60;99.90;;;;;;6294519;22;20234;-79
2021/06/09 08:09:04;;;;;;;13.93;12.43;;;29.60;99.90;;;;;;6295005;22;20175;-75
2021/06/09 08:11:31;;;;;;;17.95;16.15;;;29.60;99.90;;;;;;6294145;22;20179;-77
2021/06/09 08:13:58;;;;;;;14.43;12.90;;;29.70;99.90;;;;;;6292664;22;20175;-78
2021/06/09 08:16:25;;;;;;;16.95;15.18;;;29.80;99.90;;;;;;6293517;22;20183;-78
2021/06/09 08:18:51;;;;;;;12.25;10.98;;;29.80;99.90;;;;;;6293978;22;20192;-78
2021/06/09 08:21:20;;;;;;;12.32;11.13;;;29.80;99.90;;;;;;6294112;22;20176;-77
2021/06/09 08:23:49;;;;;;;15.00;13.48;;;29.80;99.90;;;;;;6294531;22;20175;-78
2021/06/09 08:26:19;;;;;;;15.38;13.90;;;29.90;99.90;;;;;;6293922;22;20168;-78
2021/06/09 08:28:47;;;;;;;16.33;14.02;;;29.90;99.90;;;;;;6293581;22;20163;-78
2021/06/09 08:31:18;;;;;;;17.90;13.55;;;30.10;99.90;;;;;;6294047;22;20207;-79
2021/06/09 08:33:45;;;;;;;15.82;12.13;;;30.20;99.90;;;;;;6294855;22;20164;-78
2021/06/09 08:36:13;;;;;;;14.85;11.43;;;30.40;99.90;;;;;;6293577;22;20624;-78
2021/06/09 08:38:41;;;;;;;17.83;13.02;;;30.60;99.90;;;;;;6294853;22;20199;-75
2021/06/09 08:41:08;;;;;;;13.45;12.15;;;30.50;99.90;;;;;;6293786;22;20172;-76
2021/06/09 08:43:37;;;;;;;13.38;12.02;;;30.50;99.90;;;;;;6294298;22;20918;-78
2021/06/09 08:46:04;;;;;;;13.85;12.45;;;30.30;99.90;;;;;;6293990;22;20180;-77
2021/06/09 08:48:33;;;;;;;10.63;9.60;;;30.00;99.90;;;;;;6293900;22;20179;-78
2021/06/09 08:51:01;;;;;;;13.20;11.90;;;29.80;99.90;;;;;;6294155;22;20176;-76
2021/06/09 08:53:28;;;;;;;12.65;11.35;;;29.80;99.90;;;;;;6294705;22;20790;-77
2021/06/09 08:55:55;;;;;;;10.63;8.10;;;29.50;99.90;;;;;;6293744;22;20176;-76
2021/06/09 08:58:22;;;;;;;12.25;10.30;;;29.30;99.90;;;;;;6294318;22;20200;-76
2021/06/09 09:00:50;;;;;;;16.02;10.13;;;29.10;99.90;;;;;;6294174;22;20569;-77
2021/06/09 09:03:16;;;;;;;14.27;9.90;;;29.40;99.90;;;;;;6293139;22;20654;-77
2021/06/09 09:05:42;;;;;;;15.15;10.25;;;29.60;99.90;;;;;;6294324;22;20164;-75
2021/06/09 09:08:09;;;;;;;15.75;11.80;;;29.70;99.90;;;;;;6294553;22;20172;-76
2021/06/09 09:10:36;;;;;;;10.63;8.07;;;29.60;99.90;;;;;;6293206;22;20257;-78
2021/06/09 09:13:04;;;;;;;10.35;8.82;;;29.70;99.90;;;;;;6294538;22;20481;-78
2021/06/09 09:15:30;;;;;;;8.35;5.90;;;29.80;99.90;;;;;;6294418;22;20195;-78
2021/06/09 09:18:00;;;;;;;13.27;8.20;;;29.90;99.90;;;;;;6293528;22;20192;-76
2021/06/09 09:20:28;;;;;;;15.80;8.93;;;29.90;99.90;;;;;;6293904;22;20168;-77
2021/06/09 09:22:57;;;;;;;11.05;7.18;;;30.10;99.90;;;;;;6294351;22;20229;-77
2021/06/09 09:25:27;;;;;;;9.23;6.07;;;30.40;99.90;;;;;;6293829;22;20177;-77
2021/06/09 09:27:55;;;;;;;8.00;4.88;;;30.60;99.90;;;;;;6294432;22;20180;-78
2021/06/09 09:30:22;;;;;;;10.55;6.13;;;30.80;99.90;;;;;;6293861;22;20178;-75
2021/06/09 09:33:07;;;;;;;13.32;6.22;;;30.80;99.90;;;;;;6293468;22;20239;-77
2021/06/09 09:35:36;;;;;;;13.25;7.32;;;30.80;99.90;;;;;;6294540;22;20175;-77
2021/06/09 09:38:17;;;;;;;12.02;7.78;;;30.80;99.90;;;;;;6293669;22;20196;-76
2021/06/09 09:41:04;;;;;;;7.45;4.95;;;30.90;99.90;;;;;;6293622;22;20179;-76
2021/06/09 09:43:48;;;;;;;10.32;6.20;;;31.00;99.90;;;;;;6294481;22;20164;-78
2021/06/09 09:46:18;;;;;;;7.80;4.38;;;31.00;99.90;;;;;;6292926;22;20537;-77
2021/06/09 09:49:08;;;;;;;7.78;4.60;;;31.00;99.90;;;;;;6292973;22;20164;-77
2021/06/09 09:51:37;;;;;;;7.00;3.22;;;31.00;99.90;;;;;;6293550;22;20674;-77
2021/06/09 09:54:06;;;;;;;8.77;3.97;;;30.80;99.90;;;;;;6294173;22;20206;-76
2021/06/09 09:56:35;;;;;;;10.48;5.38;;;30.90;99.90;;;;;;6293618;22;20176;-76
2021/06/09 09:59:05;;;;;;;8.27;5.10;;;30.90;99.90;;;;;;6292389;22;20717;-76
2021/06/09 10:01:33;;;;;;;7.30;5.18;;;30.80;99.90;;;;;;6293999;22;20183;-75
2021/06/09 10:04:02;;;;;;;8.40;5.47;;;30.50;99.90;;;;;;6293718;22;20204;-77
2021/06/09 10:06:32;;;;;;;10.27;6.07;;;30.50;99.90;;;;;;6292599;22;20241;-77
2021/06/09 10:09:07;;;;;;;7.43;6.10;;;30.50;99.90;;;;;;6293600;22;20164;-77
2021/06/09 10:11:34;;;;;;;9.82;6.25;;;30.30;99.90;;;;;;6293175;22;20595;-76
2021/06/09 10:14:00;;;;;;;14.25;7.28;;;30.20;99.90;;;;;;6292999;22;20172;-76
2021/06/09 10:16:32;;;;;;;12.05;7.32;;;30.20;99.90;;;;;;6293675;22;20714;-77
2021/06/09 10:19:07;;;;;;;7.78;5.55;;;30.40;99.90;;;;;;6293833;22;20640;-78
2021/06/09 10:21:43;;;;;;;15.68;8.13;;;30.30;99.90;;;;;;6292655;22;20175;-77
2021/06/09 10:24:10;;;;;;;12.48;7.40;;;30.20;99.90;;;;;;6292786;22;20181;-77
2021/06/09 10:26:39;;;;;;;11.95;7.47;;;30.20;99.90;;;;;;6294120;22;20195;-78
2021/06/09 10:29:12;;;;;;;9.23;6.35;;;30.30;99.90;;;;;;6293066;22;20549;-76
2021/06/09 10:31:41;;;;;;;11.82;8.10;;;30.40;99.90;;;;;;6292989;22;20156;-75
2021/06/09 10:34:07;;;;;;;10.68;7.50;;;30.40;99.90;;;;;;6292385;22;20176;-75
2021/06/09 10:36:45;;;;;;;12.02;7.50;;;30.40;99.90;;;;;;6293125;22;20168;-75
2021/06/09 10:39:11;;;;;;;9.57;6.00;;;30.50;99.90;;;;;;6291159;22;20862;-74
2021/06/09 10:41:41;;;;;;;11.38;6.68;;;30.50;99.90;;;;;;6291596;22;20654;-75
2021/06/09 10:44:09;;;;;;;8.73;6.03;;;30.40;99.90;;;;;;6291862;22;20191;-75
2021/06/09 10:46:39;;;;;;;11.65;7.47;;;30.40;99.90;;;;;;6291571;22;20172;-77
2021/06/09 10:49:06;;;;;;;10.75;6.60;;;30.20;99.90;;;;;;6290957;22;20226;-76
2021/06/09 10:51:32;;;;;;;13.43;6.57;;;30.40;99.90;;;;;;6291879;22;20172;-75
2021/06/09 10:54:05;;;;;;;9.80;4.75;;;30.30;99.90;;;;;;6292596;22;20694;-75
2021/06/09 10:56:31;;;;;;;9.20;5.65;;;30.40;99.90;;;;;;6292491;22;20217;-78
2021/06/09 10:58:58;;;;;;;11.63;6.22;;;30.10;99.90;;;;;;6292516;22;20893;-77
2021/06/09 11:01:25;;;;;;;11.23;7.00;;;30.00;99.90;;;;;;6292600;22;20176;-75
2021/06/09 11:03:56;;;;;;;8.00;5.30;;;30.10;99.90;;;;;;6291968;22;20265;-76
2021/06/09 11:06:44;;;;;;;8.60;5.40;;;30.20;99.90;;;;;;6293622;22;20434;-75
2021/06/09 11:09:20;;;;;;;8.27;4.88;;;30.10;99.90;;;;;;6291905;22;20210;-75
2021/06/09 11:11:49;;;;;;;6.70;4.13;;;30.00;99.90;;;;;;6293729;22;20433;-78
2021/06/09 11:14:21;;;;;;;5.50;4.15;;;30.00;99.90;;;;;;6292907;22;20176;-75
2021/06/09 11:16:49;;;;;;;10.00;5.00;;;30.00;99.90;;;;;;6292662;22;20172;-75
2021/06/09 11:19:31;;;;;;;8.57;4.00;;;30.00;99.90;;;;;;6292253;22;20237;-76
2021/06/09 11:22:13;;;;;;;5.05;3.47;;;30.10;99.90;;;;;;6293305;22;20164;-76
2021/06/09 11:24:41;;;;;;;6.40;4.10;;;30.10;99.90;;;;;;6291983;22;20191;-75
2021/06/09 11:27:27;;;;;;;5.97;3.55;;;30.10;99.90;;;;;;6291356;22;20313;-78
2021/06/09 11:29:53;;;;;;;7.32;4.72;;;30.10;99.90;;;;;;6292936;22;20168;-78
2021/06/09 11:32:21;;;;;;;13.02;6.38;;;30.00;99.90;;;;;;6292295;22;20176;-76
2021/06/09 11:34:58;;;;;;;10.10;5.30;;;29.60;99.90;;;;;;6293258;22;20207;-76
2021/06/09 11:37:24;;;;;;;10.57;4.82;;;29.50;99.90;;;;;;6291878;22;20172;-76
2021/06/09 11:40:03;;;;;;;8.80;4.88;;;29.50;99.90;;;;;;6293142;22;20180;-78
2021/06/09 11:42:29;;;;;;;7.10;3.90;;;29.40;99.90;;;;;;6293215;22;20767;-77
2021/06/09 11:44:55;;;;;;;7.40;5.18;;;29.60;99.90;;;;;;6292053;22;20235;-76
2021/06/09 11:47:24;;;;;;;6.93;3.83;;;29.40;99.90;;;;;;6294798;22;20172;-75
2021/06/09 11:49:52;;;;;;;10.82;5.18;;;29.60;99.90;;;;;;6294826;22;20183;-77
2021/06/09 11:52:19;;;;;;;6.32;4.75;;;29.50;99.90;;;;;;6293438;22;20199;-77
2021/06/09 11:54:47;;;;;;;7.32;4.82;;;29.50;99.90;;;;;;6294431;22;20576;-77
2021/06/09 11:57:18;;;;;;;8.45;4.93;;;29.60;99.90;;;;;;6293981;22;20639;-75
2021/06/09 11:59:46;;;;;;;4.93;3.80;;;29.50;99.90;;;;;;6294505;22;20157;-77
2021/06/09 12:02:21;;;;;;;5.40;3.22;;;29.60;99.90;;;;;;6294031;22;20174;-78
2021/06/09 12:04:48;;;;;;;4.32;3.80;;;29.60;99.90;;;;;;6294495;22;20294;-78
2021/06/09 12:07:22;;;;;;;4.28;3.75;;;29.80;99.90;;;;;;6293979;22;20168;-76
2021/06/09 12:09:49;;;;;;;3.97;3.22;;;29.80;99.90;;;;;;6294712;22;20168;-77
2021/06/09 12:12:20;;;;;;;6.38;3.53;;;29.70;99.90;;;;;;6293576;22;20226;-76
2021/06/09 12:14:48;;;;;;;4.78;3.03;;;29.80;99.90;;;;;;6294775;22;20168;-77
2021/06/09 12:17:21;;;;;;;5.25;3.67;;;29.70;99.90;;;;;;6294418;22;20176;-75
2021/06/09 12:19:51;;;;;;;6.80;4.18;;;29.90;99.90;;;;;;6293681;22;20436;-75
2021/06/09 12:22:20;;;;;;;12.60;5.65;;;29.90;99.90;;;;;;6294923;22;20183;-76
2021/06/09 12:25:01;;;;;;;5.90;3.58;;;29.80;99.90;;;;;;6294275;22;20534;-74
2021/06/09 12:27:30;;;;;;;8.02;5.75;;;29.80;99.90;;;;;;6293264;22;20632;-76
2021/06/09 12:29:56;;;;;;;14.45;8.13;;;29.60;99.90;;;;;;6294686;22;20454;-77
2021/06/09 12:32:26;;;;;;;6.90;5.05;;;29.40;99.90;;;;;;6292878;22;20183;-76
2021/06/09 12:35:01;;;;;;;9.60;6.38;;;29.40;99.90;;;;;;6292888;22;20557;-76
2021/06/09 12:37:29;;;;;;;6.68;4.78;;;29.30;99.90;;;;;;6292938;22;20216;-76
2021/06/09 12:39:59;;;;;;;8.80;5.95;;;29.40;99.90;;;;;;6294243;22;20901;-76
2021/06/09 12:42:26;;;;;;;14.15;6.65;;;29.50;99.90;;;;;;6293832;22;20183;-74
2021/06/09 12:44:54;;;;;;;11.18;6.50;;;29.50;99.90;;;;;;6294269;22;20176;-74
2021/06/09 12:47:25;;;;;;;12.90;7.80;;;29.50;99.90;;;;;;6294165;22;20172;-76
2021/06/09 12:50:07;;;;;;;12.07;7.90;;;29.20;99.90;;;;;;6293416;22;20167;-76